Impacts TAF Board
For situational awareness. Not to be used for flight planning purposes.
IDs:

KRVS - Tulsa/Jones Arpt, OK, US

Issued at 1721 UTC 21 May 2022
Updated at 2149 UTC 21 May 2022
Potential Impact None Slight Moderate High
Time2122Z 21/22Z 21/23Z 22/00Z 22/01Z 22/02Z 22/03Z 22/04Z 22/05Z 22/06Z 22/07Z 22/08Z 22/09Z 22/10Z>>
Type OBS PRVL PRVL PRVL PRVL PRVL PRVL PRVL PRVL PRVL PRVL PRVL PRVL PRVL
VIS 10 >6 >6 >6 >6 >6 >6 >6 >6 >6 >6 >6 >6 >6
CIG 36 15 35 35 35 50 50 50 50 50 50 50 50 50
Cover OVC OVC OVC OVC OVC BKN BKN BKN BKN BKN BKN BKN BKN BKN
FltCat VFR MVFR VFR VFR VFR VFR VFR VFR VFR VFR VFR VFR VFR VFR
WX -- VCSH -- -- -- -- -- -- -- -- -- -- -- --
WDir 350 10 10 10 10 10 10 10 10 10 10 10 10 10
WSpd 8 14 12 12 12 5 5 5 5 5 5 5 5 5
WGst 17 20 -- -- -- -- -- -- -- -- -- -- -- --
WSHgt -- -- -- -- -- -- -- -- -- -- -- -- -- --
WSDir -- -- -- -- -- -- -- -- -- -- -- -- -- --
WSSpd -- -- -- -- -- -- -- -- -- -- -- -- -- --
R01/19
XWnd 3 1 1 1 1 0 0 0 0 0 0 0 0 0
XGst 7 1 -- -- -- -- -- -- -- -- -- -- -- --
HWnd 7 14 12 12 12 5 5 5 5 5 5 5 5 5
HGst 16 20 -- -- -- -- -- -- -- -- -- -- -- --
R13/31
XWnd 5 12 10 10 10 4 4 4 4 4 4 4 4 4
XGst 10 17 -- -- -- -- -- -- -- -- -- -- -- --
HWnd -6 -8 -7 -7 -7 -3 -3 -3 -3 -3 -3 -3 -3 -3
HGst -14 -11 -- -- -- -- -- -- -- -- -- -- -- --
Raw TAF
KRVS 211721Z 2118/2218 01014G20KT P6SM VCSH OVC015
  FM212300 01012KT P6SM OVC035
  FM220200 01005KT P6SM BKN050


Raw METAR
KRVS 212122Z 35008G17KT 10SM SCT027 OVC036 16/10 A3007 RMK AO2 T01610100
KRVS 212053Z 01009G20KT 10SM OVC027 16/10 A3006 RMK AO2 SLP186 T01560100 51012
KRVS 211953Z 02010G20KT 10SM OVC027 16/10 A3005 RMK AO2 SLP182 T01560100
KRVS 211853Z 36011G19KT 320V030 10SM OVC023 15/10 A3004 RMK AO2 SLP179 T01500100

METAR Board
Radar Display
Forecast Discussion
For situational awareness. Not to be used for flight planning purposes.